Time;durP1;ratioP1;P1;durP2;ratioP2;P2;SDS_P1;SDS_P2;PMS_P1;PMS_P2;Temp;Humidity;BMP_temperature;BMP_pressure;BME280_temperature;BME280_humidity;BME280_pressure;Samples;Min_cycle;Max_cycle;Signal;HPM_P1;HPM_P2
2023/07/06 00:01:02;;;;;;;0.10;0.10;;;19.20;99.90;;;;;;5023954;28;20033;-81
2023/07/06 00:03:31;;;;;;;0.50;0.50;;;19.60;99.90;;;;;;5042211;28;20130;-79
2023/07/06 00:05:57;;;;;;;0.15;0.15;;;19.40;99.90;;;;;;5023227;28;20064;-81
2023/07/06 00:08:23;;;;;;;2.38;1.95;;;19.20;99.90;;;;;;5041325;28;20033;-80
2023/07/06 00:10:50;;;;;;;0.20;0.20;;;19.00;99.90;;;;;;5041027;28;20024;-90
2023/07/06 00:13:16;;;;;;;2.65;2.50;;;18.90;99.90;;;;;;5041654;28;20214;-73
2023/07/06 00:15:43;;;;;;;0.30;0.30;;;18.90;99.90;;;;;;5052882;28;20202;-73
2023/07/06 00:18:12;;;;;;;0.10;0.10;;;19.20;99.90;;;;;;5060353;28;20301;-74
2023/07/06 00:20:38;;;;;;;0.08;0.08;;;19.20;99.90;;;;;;5042983;28;20047;-73
2023/07/06 00:23:08;;;;;;;0.10;0.10;;;19.80;99.90;;;;;;5061287;28;20191;-78
2023/07/06 00:25:35;;;;;;;0.10;0.10;;;19.90;99.90;;;;;;5060929;28;20517;-75
2023/07/06 00:28:04;;;;;;;0.10;0.10;;;19.80;99.90;;;;;;5042895;28;20024;-73
2023/07/06 00:33:16;;;;;;;0.15;0.15;;;19.30;99.90;;;;;;5060880;28;20115;-84
2023/07/06 00:35:42;;;;;;;9.95;9.40;;;19.50;99.90;;;;;;5060305;28;20090;-76
2023/07/06 00:38:12;;;;;;;0.55;0.55;;;19.50;99.90;;;;;;5060321;28;20679;-81
2023/07/06 00:40:44;;;;;;;0.10;0.10;;;19.30;99.90;;;;;;5059732;28;20706;-81
2023/07/06 00:43:20;;;;;;;0.10;0.10;;;18.90;99.90;;;;;;5060165;28;20013;-90
2023/07/06 00:45:49;;;;;;;0.47;0.40;;;18.70;99.90;;;;;;5042112;28;20039;-90
2023/07/06 00:48:20;;;;;;;0.10;0.10;;;18.50;99.90;;;;;;5060823;28;20017;-87
2023/07/06 00:50:51;;;;;;;0.10;0.10;;;18.70;99.90;;;;;;5060574;28;20013;-82
2023/07/06 00:53:19;;;;;;;0.68;0.68;;;18.20;99.90;;;;;;5042998;28;20111;-82
2023/07/06 00:55:45;;;;;;;0.30;0.30;;;17.90;99.90;;;;;;5042686;28;20085;-76
2023/07/06 00:58:18;;;;;;;0.10;0.10;;;17.80;99.90;;;;;;5060444;28;20037;-73
2023/07/06 01:00:44;;;;;;;0.10;0.10;;;;;;;;;;5042789;28;20023;-82
2023/07/06 01:03:11;;;;;;;0.90;0.90;;;17.60;99.90;;;;;;5059846;28;20115;-79
2023/07/06 01:05:40;;;;;;;0.03;0.03;;;17.50;99.90;;;;;;5041786;28;20086;-79
2023/07/06 01:08:12;;;;;;;0.85;0.85;;;17.40;99.90;;;;;;5059223;28;20037;-80
2023/07/06 01:10:40;;;;;;;3.13;2.83;;;17.40;99.90;;;;;;5059406;28;20031;-86
2023/07/06 01:13:07;;;;;;;0.03;0.03;;;17.30;99.90;;;;;;5059914;28;20052;-80
2023/07/06 01:15:41;;;;;;;0.10;0.10;;;17.30;99.90;;;;;;5059281;28;20027;-72
2023/07/06 01:18:33;;;;;;;0.10;0.10;;;17.30;99.90;;;;;;5058815;28;20538;-73
2023/07/06 01:21:33;;;;;;;0.10;0.10;;;16.70;99.90;;;;;;5059664;28;20031;-85
2023/07/06 01:23:58;;;;;;;0.10;0.10;;;17.30;99.90;;;;;;5058411;28;20033;-72
2023/07/06 01:26:38;;;;;;;1.88;1.70;;;17.60;99.90;;;;;;5059475;28;20101;-72
2023/07/06 01:29:16;;;;;;;0.10;0.10;;;17.40;99.90;;;;;;5041957;28;20025;-84
2023/07/06 01:32:03;;;;;;;0.10;0.10;;;17.30;99.90;;;;;;5058720;28;20478;-79
2023/07/06 01:34:32;;;;;;;1.27;1.27;;;17.60;99.90;;;;;;5058703;28;20055;-74
2023/07/06 01:37:02;;;;;;;0.25;0.25;;;17.60;99.90;;;;;;5059162;28;20759;-81
2023/07/06 01:39:28;;;;;;;0.10;0.10;;;17.90;99.90;;;;;;5058723;28;20127;-73
2023/07/06 01:42:12;;;;;;;0.98;0.98;;;17.90;99.90;;;;;;5058607;28;20103;-85
2023/07/06 01:44:45;;;;;;;1.15;1.13;;;18.40;99.90;;;;;;5058913;28;20107;-84
2023/07/06 01:47:12;;;;;;;0.10;0.10;;;18.50;99.90;;;;;;5058974;28;20110;-78
2023/07/06 01:49:38;;;;;;;0.20;0.20;;;18.90;99.90;;;;;;5058535;28;20032;-75
2023/07/06 01:52:16;;;;;;;0.52;0.52;;;19.20;99.90;;;;;;5058818;28;20048;-73
2023/07/06 01:54:49;;;;;;;0.10;0.10;;;19.60;99.90;;;;;;5058875;28;20050;-78
2023/07/06 01:57:24;;;;;;;0.10;0.10;;;19.90;99.90;;;;;;5058903;28;20036;-80
2023/07/06 01:59:53;;;;;;;0.10;0.10;;;19.90;99.90;;;;;;5059633;28;20028;-77
2023/07/06 02:02:20;;;;;;;0.30;0.30;;;19.90;99.90;;;;;;5058422;28;20029;-75
2023/07/06 02:04:47;;;;;;;0.10;0.10;;;20.10;99.90;;;;;;5058583;28;20093;-84
2023/07/06 02:07:16;;;;;;;0.10;0.10;;;21.60;99.90;;;;;;5059102;28;20020;-74
2023/07/06 02:09:46;;;;;;;4.20;1.98;;;20.20;99.90;;;;;;5059004;28;20020;-79
2023/07/06 02:12:13;;;;;;;1.40;1.23;;;20.20;99.90;;;;;;5058387;28;20020;-82
2023/07/06 02:14:42;;;;;;;0.20;0.20;;;20.00;99.90;;;;;;5058289;28;20118;-79
2023/07/06 02:17:09;;;;;;;2.20;1.85;;;20.30;99.90;;;;;;5023452;28;20668;-74
2023/07/06 02:19:36;;;;;;;0.10;0.10;;;20.10;99.90;;;;;;5038757;28;20036;-78
2023/07/06 02:22:03;;;;;;;0.17;0.17;;;19.90;99.90;;;;;;5039073;28;20018;-85
2023/07/06 02:24:30;;;;;;;0.10;0.10;;;19.50;99.90;;;;;;5038065;28;20586;-75
2023/07/06 02:26:56;;;;;;;0.10;0.10;;;20.30;99.90;;;;;;5037362;28;20381;-75
2023/07/06 02:29:25;;;;;;;0.10;0.10;;;19.10;99.90;;;;;;5037463;28;20092;-76
2023/07/06 02:31:50;;;;;;;0.10;0.10;;;18.80;99.90;;;;;;5037286;28;20036;-75
2023/07/06 02:34:24;;;;;;;0.60;0.60;;;18.50;99.90;;;;;;5019822;28;20057;-74
2023/07/06 02:36:54;;;;;;;0.10;0.10;;;18.20;99.90;;;;;;5039706;28;20037;-85
2023/07/06 02:39:24;;;;;;;1.25;1.25;;;18.40;99.90;;;;;;5041279;28;20024;-78
2023/07/06 02:41:53;;;;;;;0.28;0.28;;;18.90;99.90;;;;;;5043073;28;20021;-76
2023/07/06 02:44:22;;;;;;;0.10;0.10;;;18.80;99.90;;;;;;5042092;28;20616;-79
2023/07/06 02:46:48;;;;;;;0.10;0.10;;;;;;;;;;5049170;28;20054;-80
2023/07/06 02:49:15;;;;;;;0.10;0.10;;;18.80;99.90;;;;;;5062984;28;20039;-80
2023/07/06 02:51:42;;;;;;;0.10;0.10;;;18.80;99.90;;;;;;5062935;28;20699;-72
2023/07/06 02:54:10;;;;;;;0.10;0.10;;;19.00;99.90;;;;;;5062824;28;20055;-78
2023/07/06 02:56:35;;;;;;;0.10;0.10;;;19.00;99.90;;;;;;5062440;28;20017;-74
2023/07/06 02:59:01;;;;;;;0.10;0.10;;;19.50;99.90;;;;;;5062908;28;20045;-81
2023/07/06 03:01:28;;;;;;;0.10;0.10;;;19.80;99.90;;;;;;5062004;28;20016;-80
2023/07/06 03:03:54;;;;;;;0.08;0.08;;;19.70;99.90;;;;;;5062324;28;20090;-77
2023/07/06 03:06:19;;;;;;;1.05;1.05;;;19.80;99.90;;;;;;5061970;28;20574;-86
2023/07/06 03:08:47;;;;;;;0.10;0.10;;;19.80;99.90;;;;;;5061844;28;20017;-81
2023/07/06 03:11:14;;;;;;;0.43;0.43;;;19.50;99.90;;;;;;5061768;28;20073;-82
2023/07/06 03:13:41;;;;;;;0.10;0.10;;;19.20;99.90;;;;;;5061793;28;20021;-79
2023/07/06 03:16:08;;;;;;;0.10;0.10;;;19.30;99.90;;;;;;5061820;28;20177;-80
2023/07/06 03:18:33;;;;;;;0.10;0.10;;;19.60;99.90;;;;;;5061945;28;20119;-79
2023/07/06 03:21:00;;;;;;;0.10;0.10;;;19.80;99.90;;;;;;5061956;28;20521;-82
2023/07/06 03:23:28;;;;;;;0.10;0.10;;;20.00;99.90;;;;;;5061925;28;20082;-75
2023/07/06 03:25:54;;;;;;;0.10;0.10;;;20.10;99.90;;;;;;5061824;28;20247;-88
2023/07/06 03:28:23;;;;;;;0.10;0.10;;;20.00;99.90;;;;;;5061710;28;20047;-75
2023/07/06 03:30:58;;;;;;;0.10;0.10;;;19.90;99.90;;;;;;5043373;28;20586;-82
2023/07/06 03:33:25;;;;;;;0.10;0.10;;;;;;;;;;5061883;28;20016;-75
2023/07/06 03:35:56;;;;;;;0.10;0.10;;;20.30;99.90;;;;;;5061660;28;20647;-76
2023/07/06 03:38:25;;;;;;;0.10;0.10;;;20.40;99.90;;;;;;5061478;28;20094;-82
2023/07/06 03:40:52;;;;;;;0.10;0.10;;;20.40;99.90;;;;;;5061376;28;20668;-76
2023/07/06 03:43:19;;;;;;;0.10;0.10;;;20.50;99.90;;;;;;5061315;28;20562;-79
2023/07/06 03:45:47;;;;;;;1.10;0.82;;;20.50;99.90;;;;;;5061451;28;20020;-74
2023/07/06 03:48:14;;;;;;;1.48;1.48;;;20.60;99.90;;;;;;5043761;28;20121;-77
2023/07/06 03:50:40;;;;;;;0.10;0.10;;;22.10;99.90;;;;;;5060402;28;20023;-81
2023/07/06 03:53:07;;;;;;;0.10;0.10;;;20.20;99.90;;;;;;5061360;28;20028;-74
2023/07/06 03:55:33;;;;;;;1.38;1.17;;;20.40;99.90;;;;;;5061585;28;20013;-85
2023/07/06 03:58:00;;;;;;;0.10;0.10;;;20.50;99.90;;;;;;5061110;28;20024;-83
2023/07/06 04:00:28;;;;;;;0.10;0.10;;;20.20;99.90;;;;;;5062068;28;20028;-87
2023/07/06 04:03:03;;;;;;;0.10;0.10;;;20.40;99.90;;;;;;5061046;28;20119;-74
2023/07/06 04:05:43;;;;;;;0.10;0.10;;;20.40;99.90;;;;;;5061683;28;20561;-82
2023/07/06 04:08:12;;;;;;;0.10;0.10;;;20.60;99.90;;;;;;5061281;28;20099;-73
2023/07/06 04:10:40;;;;;;;0.55;0.55;;;20.60;99.90;;;;;;5061134;28;20020;-75
2023/07/06 04:13:08;;;;;;;0.10;0.10;;;20.30;99.90;;;;;;5061243;28;20029;-78
2023/07/06 04:15:34;;;;;;;0.10;0.10;;;20.70;99.90;;;;;;5062367;28;20028;-93
2023/07/06 04:18:03;;;;;;;0.75;0.75;;;20.80;99.90;;;;;;5043620;28;20039;-78
2023/07/06 04:20:30;;;;;;;0.10;0.10;;;20.80;99.90;;;;;;5061468;28;20017;-81
2023/07/06 04:22:57;;;;;;;0.43;0.43;;;20.80;99.90;;;;;;5061073;28;20024;-75
2023/07/06 04:25:29;;;;;;;0.25;0.25;;;20.90;99.90;;;;;;5060721;28;20021;-74
2023/07/06 04:27:56;;;;;;;3.50;3.30;;;20.80;99.90;;;;;;5060516;28;20012;-75
2023/07/06 04:30:22;;;;;;;0.20;0.20;;;20.80;99.90;;;;;;5060503;28;20100;-76
2023/07/06 04:32:49;;;;;;;1.38;1.38;;;21.00;99.90;;;;;;5060631;28;20148;-82
2023/07/06 04:35:17;;;;;;;3.53;2.78;;;21.10;99.90;;;;;;5060302;28;20738;-82
2023/07/06 04:37:46;;;;;;;1.40;1.38;;;21.10;99.90;;;;;;5060397;28;20039;-75
2023/07/06 04:40:13;;;;;;;2.38;2.28;;;21.10;99.90;;;;;;5061242;28;20122;-83
2023/07/06 04:42:43;;;;;;;1.15;0.63;;;21.10;99.90;;;;;;5060663;28;20048;-75
2023/07/06 04:45:12;;;;;;;0.10;0.10;;;21.20;99.90;;;;;;5060681;28;20511;-76
2023/07/06 04:47:39;;;;;;;0.20;0.20;;;21.10;99.90;;;;;;5060498;28;20165;-74
2023/07/06 04:50:09;;;;;;;0.10;0.10;;;20.60;99.90;;;;;;5060451;28;20017;-75
2023/07/06 04:52:37;;;;;;;0.10;0.10;;;21.10;99.90;;;;;;5059882;28;20722;-78
2023/07/06 04:55:05;;;;;;;0.10;0.10;;;21.20;99.90;;;;;;5060783;28;20118;-81
2023/07/06 04:57:31;;;;;;;3.00;2.45;;;21.30;99.90;;;;;;5042260;28;20036;-85
2023/07/06 04:59:57;;;;;;;0.10;0.10;;;21.30;99.90;;;;;;5060197;28;20494;-81
2023/07/06 05:02:23;;;;;;;0.20;0.20;;;21.30;99.90;;;;;;5058960;28;20027;-77
2023/07/06 05:04:51;;;;;;;0.22;0.22;;;;;;;;;;5059497;28;20044;-90
2023/07/06 05:07:18;;;;;;;0.30;0.30;;;21.30;99.90;;;;;;5059514;28;20082;-74
2023/07/06 05:09:47;;;;;;;0.20;0.20;;;21.40;99.90;;;;;;5042360;28;20682;-84
2023/07/06 05:12:14;;;;;;;0.88;0.88;;;21.50;99.90;;;;;;5059865;28;20024;-75
2023/07/06 05:14:40;;;;;;;0.13;0.13;;;21.50;99.90;;;;;;5059699;28;20036;-75
2023/07/06 05:17:06;;;;;;;0.30;0.30;;;21.40;99.90;;;;;;5059151;28;20016;-74
2023/07/06 05:19:32;;;;;;;0.38;0.38;;;21.30;99.90;;;;;;5059553;28;20628;-76
2023/07/06 05:21:58;;;;;;;0.85;0.82;;;21.40;99.90;;;;;;5058827;28;20052;-90
2023/07/06 05:24:27;;;;;;;0.35;0.35;;;21.40;99.90;;;;;;5059422;28;20086;-79
2023/07/06 05:26:53;;;;;;;0.10;0.10;;;21.40;99.90;;;;;;5059952;28;20213;-86
2023/07/06 05:29:20;;;;;;;0.38;0.32;;;21.50;99.90;;;;;;5059548;28;20052;-85
2023/07/06 05:31:48;;;;;;;0.20;0.20;;;21.50;99.90;;;;;;5059097;28;20019;-76
2023/07/06 05:34:14;;;;;;;0.40;0.40;;;21.20;99.90;;;;;;5058763;28;20034;-81
2023/07/06 05:36:39;;;;;;;0.80;0.80;;;21.30;99.90;;;;;;5059097;28;20029;-79
2023/07/06 05:39:06;;;;;;;0.10;0.10;;;21.40;99.90;;;;;;5059463;28;20068;-79
2023/07/06 05:41:33;;;;;;;0.30;0.30;;;21.20;99.90;;;;;;5059134;28;20078;-75
2023/07/06 05:43:58;;;;;;;0.10;0.10;;;21.10;99.90;;;;;;5059191;28;20020;-78
2023/07/06 05:46:24;;;;;;;0.00;0.00;;;21.10;99.90;;;;;;5063544;28;20078;-77
2023/07/06 05:48:51;;;;;;;0.10;0.10;;;21.30;99.90;;;;;;5066056;28;20024;-78
2023/07/06 05:51:17;;;;;;;3.92;3.58;;;21.40;99.90;;;;;;5065792;28;20082;-75
2023/07/06 05:53:43;;;;;;;0.38;0.38;;;21.60;99.90;;;;;;5064991;28;20028;-75
2023/07/06 05:56:09;;;;;;;0.10;0.10;;;21.70;99.90;;;;;;5064127;28;20049;-87
2023/07/06 05:58:36;;;;;;;0.10;0.10;;;21.70;99.90;;;;;;5063586;28;20747;-79
2023/07/06 06:01:02;;;;;;;0.20;0.20;;;21.70;99.90;;;;;;5064935;28;20074;-89
2023/07/06 06:03:29;;;;;;;0.50;0.50;;;21.80;99.90;;;;;;5064459;28;20048;-85
2023/07/06 06:05:55;;;;;;;0.52;0.52;;;21.90;99.90;;;;;;5060071;28;20027;-77
2023/07/06 06:08:21;;;;;;;0.10;0.10;;;22.00;99.90;;;;;;5058780;28;20051;-73
2023/07/06 06:10:50;;;;;;;0.05;0.05;;;22.00;99.90;;;;;;5059120;28;20689;-82
2023/07/06 06:13:16;;;;;;;0.20;0.20;;;21.70;99.90;;;;;;5059540;28;20024;-87
2023/07/06 06:15:42;;;;;;;0.20;0.20;;;22.20;99.90;;;;;;5062710;28;20020;-79
2023/07/06 06:18:09;;;;;;;0.10;0.10;;;22.30;99.90;;;;;;5062596;28;20033;-75
2023/07/06 06:20:37;;;;;;;0.10;0.10;;;22.30;99.90;;;;;;5062844;28;20538;-76
2023/07/06 06:23:03;;;;;;;0.10;0.10;;;;;;;;;;5061956;28;20021;-85
2023/07/06 06:25:29;;;;;;;2.25;2.15;;;22.20;99.90;;;;;;5062076;28;20715;-78
2023/07/06 06:27:54;;;;;;;0.70;0.70;;;22.10;99.90;;;;;;5062691;28;20103;-74
2023/07/06 06:30:20;;;;;;;1.55;1.45;;;22.00;99.90;;;;;;5062188;28;20021;-77
2023/07/06 06:32:46;;;;;;;0.10;0.10;;;21.80;99.90;;;;;;5062297;28;20095;-74
2023/07/06 06:35:23;;;;;;;0.10;0.10;;;21.90;99.90;;;;;;5062112;28;20009;-79
2023/07/06 06:37:49;;;;;;;0.10;0.10;;;22.10;99.90;;;;;;5062793;28;20029;-78
2023/07/06 06:40:16;;;;;;;0.10;0.10;;;22.10;99.90;;;;;;5044943;28;20135;-85
2023/07/06 06:42:42;;;;;;;0.15;0.15;;;22.30;99.90;;;;;;5062387;28;20031;-79
2023/07/06 06:45:08;;;;;;;0.20;0.20;;;22.40;99.90;;;;;;5062232;28;20100;-87
2023/07/06 06:47:34;;;;;;;0.10;0.10;;;22.40;99.90;;;;;;5062128;28;20221;-79
2023/07/06 06:50:00;;;;;;;2.88;1.25;;;22.50;99.90;;;;;;5061971;28;20685;-78
2023/07/06 06:52:32;;;;;;;0.40;0.40;;;22.60;99.90;;;;;;5063031;28;20039;-79
2023/07/06 06:54:58;;;;;;;0.45;0.45;;;22.60;99.90;;;;;;5061820;28;20044;-86
2023/07/06 06:57:23;;;;;;;0.95;0.95;;;22.40;99.90;;;;;;5044132;28;20076;-74
2023/07/06 06:59:49;;;;;;;0.32;0.32;;;22.50;99.90;;;;;;5062606;28;20013;-82
2023/07/06 07:02:15;;;;;;;0.10;0.10;;;22.50;99.90;;;;;;5064560;28;20651;-74
2023/07/06 07:04:41;;;;;;;0.10;0.10;;;22.50;99.90;;;;;;5065547;28;20196;-85
2023/07/06 07:07:07;;;;;;;1.00;1.00;;;22.60;99.90;;;;;;5047390;28;20095;-79
2023/07/06 07:09:33;;;;;;;0.10;0.10;;;22.60;99.90;;;;;;5066431;28;20548;-75
2023/07/06 07:12:00;;;;;;;0.20;0.20;;;22.70;99.90;;;;;;5064790;28;20016;-74
2023/07/06 07:14:27;;;;;;;3.88;3.67;;;22.80;99.90;;;;;;5061823;28;20032;-81
2023/07/06 07:16:53;;;;;;;0.10;0.10;;;22.80;99.90;;;;;;5060103;28;20099;-74
2023/07/06 07:19:19;;;;;;;0.20;0.20;;;22.90;99.90;;;;;;5060596;28;20665;-83
2023/07/06 07:21:45;;;;;;;0.22;0.22;;;23.00;99.90;;;;;;5060405;28;20028;-79
2023/07/06 07:24:11;;;;;;;0.10;0.10;;;;;;;;;;5042644;28;20038;-74
2023/07/06 07:26:37;;;;;;;4.03;2.67;;;23.20;99.90;;;;;;5059171;28;20048;-77
2023/07/06 07:29:04;;;;;;;0.10;0.10;;;23.40;99.90;;;;;;5059832;28;20074;-81
2023/07/06 07:31:30;;;;;;;1.75;1.65;;;23.50;99.90;;;;;;5060051;28;20103;-73
2023/07/06 07:33:56;;;;;;;1.13;1.13;;;23.70;99.90;;;;;;5059633;28;20024;-81
2023/07/06 07:36:22;;;;;;;0.17;0.17;;;23.80;99.90;;;;;;5059865;28;20214;-82
2023/07/06 07:38:49;;;;;;;0.10;0.10;;;23.90;99.90;;;;;;5059997;28;20036;-75
2023/07/06 07:41:18;;;;;;;0.10;0.10;;;24.00;99.90;;;;;;5060332;28;20009;-78
2023/07/06 07:43:46;;;;;;;0.30;0.30;;;24.00;99.90;;;;;;5059704;28;20025;-77
2023/07/06 07:46:14;;;;;;;0.20;0.20;;;24.10;99.90;;;;;;5060111;28;20019;-74
2023/07/06 07:48:45;;;;;;;0.52;0.52;;;24.20;99.90;;;;;;5059833;28;20166;-75
2023/07/06 07:51:17;;;;;;;0.10;0.10;;;24.20;99.90;;;;;;5059830;28;20023;-81
2023/07/06 07:53:44;;;;;;;0.20;0.20;;;24.40;99.90;;;;;;5060178;28;20739;-78
2023/07/06 07:56:11;;;;;;;0.57;0.57;;;24.40;99.90;;;;;;5060272;28;20459;-84
2023/07/06 07:58:39;;;;;;;0.20;0.20;;;21.50;99.90;;;;;;5059697;28;20560;-79
2023/07/06 08:01:08;;;;;;;0.10;0.10;;;24.60;99.90;;;;;;5059869;28;20021;-78
2023/07/06 08:03:36;;;;;;;0.10;0.10;;;23.70;99.90;;;;;;5041449;28;20128;-77
2023/07/06 08:06:05;;;;;;;0.20;0.20;;;24.50;99.90;;;;;;5059662;28;20021;-75
2023/07/06 08:08:36;;;;;;;0.77;0.70;;;24.60;99.90;;;;;;5059592;28;20028;-85
2023/07/06 08:11:23;;;;;;;0.82;0.82;;;24.80;99.90;;;;;;5059463;28;20021;-80
2023/07/06 08:13:53;;;;;;;0.20;0.20;;;24.70;99.90;;;;;;5058966;28;20691;-73
2023/07/06 08:16:21;;;;;;;0.22;0.22;;;24.60;99.90;;;;;;5058736;28;20120;-79
2023/07/06 08:18:48;;;;;;;0.40;0.40;;;24.80;99.90;;;;;;5058854;28;20031;-80
2023/07/06 08:21:14;;;;;;;3.53;0.95;;;25.10;99.90;;;;;;5059286;28;20074;-80
2023/07/06 08:23:47;;;;;;;0.10;0.10;;;25.00;99.90;;;;;;5059061;28;20570;-81
2023/07/06 08:26:13;;;;;;;;;;;25.10;99.90;;;;;;5058057;28;20020;-72
2023/07/06 08:28:39;;;;;;;1.25;0.90;;;25.60;99.90;;;;;;5059068;28;19909;-76
2023/07/06 08:31:12;;;;;;;1.23;1.17;;;25.20;99.90;;;;;;5058850;28;20024;-84
2023/07/06 08:33:38;;;;;;;2.15;0.95;;;25.40;99.90;;;;;;5076130;28;20032;-81
2023/07/06 08:36:06;;;;;;;0.32;0.32;;;25.60;99.90;;;;;;5078258;28;20028;-79
2023/07/06 08:38:33;;;;;;;0.00;0.00;;;25.80;99.90;;;;;;5079468;28;20135;-75
2023/07/06 08:41:03;;;;;;;0.00;0.00;;;25.90;99.90;;;;;;5079127;28;20019;-73
2023/07/06 08:43:31;;;;;;;0.55;0.50;;;26.10;99.90;;;;;;5079301;28;20061;-80
2023/07/06 08:46:02;;;;;;;1.27;1.20;;;25.90;99.90;;;;;;5078447;28;20020;-77
2023/07/06 08:48:34;;;;;;;0.75;0.75;;;26.10;99.90;;;;;;5080814;28;20102;-74
2023/07/06 08:51:04;;;;;;;0.05;0.05;;;26.00;99.90;;;;;;5079811;28;20012;-78
2023/07/06 08:53:33;;;;;;;0.50;0.50;;;26.10;99.90;;;;;;5079791;28;20217;-75
2023/07/06 08:56:03;;;;;;;1.38;1.27;;;26.10;99.90;;;;;;5081265;28;20016;-77
2023/07/06 08:58:33;;;;;;;0.08;0.08;;;26.20;99.90;;;;;;5043558;28;20036;-72
2023/07/06 09:01:11;;;;;;;1.98;1.77;;;26.20;99.90;;;;;;5042620;28;20046;-73
2023/07/06 09:03:46;;;;;;;0.28;0.28;;;26.10;99.90;;;;;;5060414;28;20179;-73
2023/07/06 09:06:18;;;;;;;6.78;6.13;;;27.20;99.90;;;;;;5063172;28;20134;-72
2023/07/06 09:08:49;;;;;;;0.45;0.45;;;26.40;99.90;;;;;;5072163;28;20085;-72
2023/07/06 09:11:15;;;;;;;0.82;0.82;;;26.40;99.90;;;;;;5078590;28;20135;-77
2023/07/06 09:13:47;;;;;;;0.10;0.10;;;26.40;99.90;;;;;;5080558;28;20032;-72
2023/07/06 09:16:19;;;;;;;0.20;0.20;;;26.50;99.90;;;;;;5079756;28;20020;-72
2023/07/06 09:18:46;;;;;;;0.47;0.40;;;26.60;99.90;;;;;;5063337;28;20064;-71
2023/07/06 09:21:12;;;;;;;2.10;1.35;;;26.40;99.90;;;;;;5078987;28;20254;-71
2023/07/06 09:23:39;;;;;;;6.03;0.85;;;26.50;99.90;;;;;;5079877;28;20022;-73
2023/07/06 09:26:07;;;;;;;1.55;1.10;;;26.80;99.90;;;;;;5081612;28;20117;-76
2023/07/06 09:28:33;;;;;;;0.15;0.15;;;26.90;99.90;;;;;;5043181;28;20047;-71
2023/07/06 09:31:16;;;;;;;0.50;0.50;;;27.40;99.90;;;;;;5037908;28;20039;-72
2023/07/06 09:33:50;;;;;;;0.43;0.43;;;27.20;99.90;;;;;;5037600;28;20112;-71
2023/07/06 09:36:23;;;;;;;0.10;0.10;;;27.30;99.90;;;;;;5037889;28;20033;-71
2023/07/06 09:38:51;;;;;;;1.33;1.20;;;27.20;99.90;;;;;;5050215;28;20044;-72
2023/07/06 09:41:26;;;;;;;1.60;1.50;;;27.10;99.90;;;;;;5057923;28;20023;-78
2023/07/06 09:43:59;;;;;;;0.65;0.65;;;27.10;99.90;;;;;;5059330;28;20025;-73
2023/07/06 09:46:31;;;;;;;0.30;0.30;;;27.30;99.90;;;;;;5057012;28;20020;-72
2023/07/06 09:48:57;;;;;;;0.00;0.00;;;27.50;99.90;;;;;;5058616;28;20112;-72
2023/07/06 09:51:55;;;;;;;0.75;0.63;;;27.60;99.90;;;;;;5055620;28;20641;-81
2023/07/06 09:54:32;;;;;;;0.98;0.63;;;27.60;99.90;;;;;;5037202;28;20021;-72
2023/07/06 09:57:00;;;;;;;1.42;1.23;;;28.00;99.90;;;;;;5049230;28;20024;-74
2023/07/06 09:59:26;;;;;;;1.10;1.00;;;28.00;99.90;;;;;;5039237;28;20033;-78
2023/07/06 10:02:10;;;;;;;0.45;0.30;;;28.10;99.90;;;;;;5021957;28;20016;-76
2023/07/06 10:04:49;;;;;;;0.50;0.50;;;28.10;99.90;;;;;;5050466;28;20076;-82
2023/07/06 10:07:39;;;;;;;3.58;3.05;;;28.40;99.90;;;;;;5042004;28;20100;-71
2023/07/06 10:10:16;;;;;;;0.63;0.55;;;28.50;99.90;;;;;;5051621;28;20033;-77
2023/07/06 10:12:48;;;;;;;4.35;1.65;;;28.50;99.90;;;;;;5057373;28;20086;-73
2023/07/06 10:15:46;;;;;;;1.17;0.65;;;28.60;99.90;;;;;;5039759;28;20594;-74
2023/07/06 10:18:25;;;;;;;1.92;1.83;;;28.70;99.90;;;;;;5057005;28;20086;-78
2023/07/06 10:21:01;;;;;;;0.55;0.55;;;28.80;99.90;;;;;;5056903;28;20020;-73
2023/07/06 10:24:12;;;;;;;0.63;0.50;;;29.20;99.90;;;;;;5056301;28;20702;-79
2023/07/06 10:26:46;;;;;;;2.53;1.10;;;29.20;99.90;;;;;;5056941;28;20048;-73
2023/07/06 10:29:16;;;;;;;2.53;1.92;;;29.70;99.90;;;;;;5038521;28;20024;-77
2023/07/06 10:32:03;;;;;;;0.57;0.57;;;29.30;99.90;;;;;;5056548;28;20111;-73
2023/07/06 10:34:33;;;;;;;0.10;0.10;;;29.10;99.90;;;;;;5056879;28;20283;-75
2023/07/06 10:37:03;;;;;;;1.05;0.70;;;29.10;99.90;;;;;;5057389;28;20639;-77
2023/07/06 10:39:28;;;;;;;0.40;0.40;;;29.30;99.90;;;;;;5058490;28;20090;-81
2023/07/06 10:42:03;;;;;;;1.77;0.47;;;29.40;99.90;;;;;;5058258;28;20021;-75
2023/07/06 10:44:43;;;;;;;0.35;0.35;;;29.40;99.90;;;;;;5060441;28;20017;-79
2023/07/06 10:47:32;;;;;;;0.77;0.73;;;29.50;99.90;;;;;;5062463;28;20062;-75
2023/07/06 10:50:07;;;;;;;0.20;0.20;;;29.70;99.90;;;;;;5058591;28;20066;-78
2023/07/06 10:52:37;;;;;;;1.60;0.88;;;30.10;99.90;;;;;;5058538;28;20025;-75
2023/07/06 10:55:16;;;;;;;1.27;0.88;;;30.30;99.90;;;;;;5058317;28;20017;-81
2023/07/06 10:57:53;;;;;;;1.38;1.27;;;30.30;99.80;;;;;;5058812;28;20020;-79
2023/07/06 11:00:22;;;;;;;1.45;1.10;;;30.50;99.70;;;;;;5059670;28;20547;-83
2023/07/06 11:02:55;;;;;;;3.00;1.17;;;30.70;98.30;;;;;;5061297;28;20028;-75
2023/07/06 11:05:33;;;;;;;3.17;1.45;;;30.90;98.40;;;;;;5060857;28;20027;-76
2023/07/06 11:08:02;;;;;;;1.13;1.05;;;31.10;99.00;;;;;;5060794;28;20016;-80
2023/07/06 11:10:43;;;;;;;1.83;1.73;;;31.50;98.00;;;;;;5060918;28;20134;-76
2023/07/06 11:13:09;;;;;;;0.70;0.70;;;31.70;97.10;;;;;;5042675;28;20132;-77
2023/07/06 11:15:56;;;;;;;4.05;2.13;;;31.70;96.00;;;;;;5060737;28;20634;-77
2023/07/06 11:18:25;;;;;;;1.35;0.68;;;32.00;95.90;;;;;;5060474;28;20029;-80
2023/07/06 11:21:04;;;;;;;1.60;1.50;;;32.30;94.70;;;;;;5060421;28;20036;-75
2023/07/06 11:23:38;;;;;;;1.70;1.20;;;32.50;93.60;;;;;;5060224;28;20103;-77
2023/07/06 11:26:13;;;;;;;4.05;1.45;;;32.70;92.40;;;;;;5060207;28;20617;-75
2023/07/06 11:28:40;;;;;;;0.68;0.65;;;32.60;92.30;;;;;;5060167;28;20044;-76
2023/07/06 11:31:25;;;;;;;0.93;0.90;;;32.80;92.30;;;;;;5060262;28;20024;-77
2023/07/06 11:34:03;;;;;;;3.05;1.60;;;32.90;92.40;;;;;;5060006;28;20019;-79
2023/07/06 11:36:50;;;;;;;2.15;1.60;;;33.70;91.50;;;;;;5043528;28;20020;-76
2023/07/06 11:39:28;;;;;;;0.65;0.55;;;33.90;90.20;;;;;;5060021;28;20059;-73
2023/07/06 11:41:58;;;;;;;1.80;1.70;;;33.50;90.40;;;;;;5059690;28;20039;-76
2023/07/06 11:44:36;;;;;;;4.57;1.02;;;33.50;89.80;;;;;;5059585;28;20028;-72
2023/07/06 11:47:23;;;;;;;0.65;0.40;;;33.10;88.30;;;;;;5060109;28;20066;-83
2023/07/06 11:49:52;;;;;;;1.35;0.47;;;33.40;88.40;;;;;;5059763;28;20016;-83
2023/07/06 11:52:29;;;;;;;2.65;1.92;;;33.60;86.80;;;;;;5060100;28;20025;-74
2023/07/06 11:55:06;;;;;;;1.00;0.82;;;33.70;86.30;;;;;;5059621;28;20635;-77
2023/07/06 11:57:44;;;;;;;2.00;0.52;;;34.20;84.90;;;;;;5059314;28;20510;-76
2023/07/06 12:00:37;;;;;;;3.42;2.38;;;34.40;82.80;;;;;;5041814;28;20067;-74
2023/07/06 12:03:08;;;;;;;1.55;1.35;;;34.70;84.10;;;;;;5044970;28;20025;-77
2023/07/06 12:05:47;;;;;;;2.90;1.98;;;34.90;84.50;;;;;;5041798;28;20667;-75
2023/07/06 12:08:24;;;;;;;1.27;0.95;;;34.40;83.40;;;;;;5059412;28;20064;-73
2023/07/06 12:10:53;;;;;;;1.20;0.75;;;33.80;84.30;;;;;;5059111;28;20135;-74
2023/07/06 12:13:29;;;;;;;2.58;1.05;;;33.50;83.40;;;;;;5059758;28;20023;-75
2023/07/06 12:16:15;;;;;;;1.40;1.30;;;33.70;83.50;;;;;;5059542;28;20027;-74
2023/07/06 12:18:44;;;;;;;0.60;0.60;;;34.20;82.30;;;;;;5059235;28;20651;-75
2023/07/06 12:21:27;;;;;;;1.55;0.90;;;34.40;79.60;;;;;;5059088;28;20013;-73
2023/07/06 12:23:52;;;;;;;0.50;0.50;;;34.10;78.10;;;;;;5058894;28;20021;-77
2023/07/06 12:26:18;;;;;;;0.32;0.32;;;33.70;79.40;;;;;;5059540;28;20636;-85
2023/07/06 12:28:49;;;;;;;1.23;1.13;;;33.40;80.70;;;;;;5058692;28;20036;-81
2023/07/06 12:31:16;;;;;;;2.38;1.77;;;33.40;80.50;;;;;;5059221;28;20021;-73
2023/07/06 12:33:43;;;;;;;0.85;0.55;;;31.90;79.70;;;;;;5059536;28;20024;-81
2023/07/06 12:36:13;;;;;;;1.40;0.75;;;33.10;81.10;;;;;;5059284;28;20020;-78
2023/07/06 12:38:39;;;;;;;0.47;0.47;;;32.80;80.70;;;;;;5058588;28;20565;-80
2023/07/06 12:41:19;;;;;;;0.80;0.65;;;32.20;82.90;;;;;;5058764;28;20107;-75
2023/07/06 12:43:45;;;;;;;0.68;0.38;;;32.30;82.90;;;;;;5059352;28;20108;-74
2023/07/06 12:46:13;;;;;;;1.10;1.00;;;32.40;83.90;;;;;;5058832;28;20095;-73
2023/07/06 12:48:46;;;;;;;0.65;0.63;;;32.40;83.30;;;;;;5058781;28;20021;-75
2023/07/06 12:51:19;;;;;;;1.95;0.90;;;32.50;83.10;;;;;;5058495;28;20028;-76
2023/07/06 12:53:47;;;;;;;1.08;0.45;;;32.80;82.90;;;;;;5059035;28;20036;-83
2023/07/06 12:56:22;;;;;;;0.38;0.38;;;33.20;83.00;;;;;;5058531;28;20043;-78
2023/07/06 12:58:57;;;;;;;0.35;0.35;;;33.40;84.20;;;;;;5059014;28;20064;-80
2023/07/06 13:01:33;;;;;;;1.42;0.95;;;33.80;80.00;;;;;;5059095;28;20021;-74
2023/07/06 13:04:09;;;;;;;1.40;0.47;;;34.00;78.30;;;;;;5058344;28;20576;-79
2023/07/06 13:06:52;;;;;;;1.45;1.17;;;33.80;78.80;;;;;;5059810;28;20037;-74